createdAt,value
2019-03-25T00:01:44.596Z,77.80
2019-03-25T00:04:12.861Z,78.30
2019-03-25T00:06:41.077Z,78.10
2019-03-25T00:09:09.321Z,77.80
2019-03-25T00:11:37.564Z,77.60
2019-03-25T00:14:05.800Z,77.60
2019-03-25T00:16:34.026Z,77.60
2019-03-25T00:19:02.473Z,77.50
2019-03-25T00:21:30.701Z,77.60
2019-03-25T00:23:58.996Z,78.10
2019-03-25T00:26:27.216Z,78.30
2019-03-25T00:28:55.452Z,78.20
2019-03-25T00:31:23.681Z,77.50
2019-03-25T00:33:51.920Z,76.90
2019-03-25T00:36:20.148Z,77.60
2019-03-25T00:38:48.415Z,77.80
2019-03-25T00:41:16.651Z,77.50
2019-03-25T00:43:44.927Z,77.60
2019-03-25T00:46:13.157Z,77.30
2019-03-25T00:48:41.390Z,76.70
2019-03-25T00:51:09.629Z,76.70
2019-03-25T00:53:37.881Z,76.40
2019-03-25T00:56:06.108Z,76.20
2019-03-25T00:58:34.354Z,76.40
2019-03-25T01:01:02.580Z,76.50
2019-03-25T01:03:30.844Z,76.50
2019-03-25T01:05:59.099Z,76.40
2019-03-25T01:08:27.312Z,76.30
2019-03-25T01:10:55.549Z,76.30
2019-03-25T01:13:23.800Z,76.30
2019-03-25T01:15:52.035Z,76.20
2019-03-25T01:18:20.319Z,76.10
2019-03-25T01:20:48.541Z,76.90
2019-03-25T01:23:16.782Z,76.60
2019-03-25T01:25:45.033Z,76.10
2019-03-25T01:28:13.329Z,75.80
2019-03-25T01:30:41.633Z,75.70
2019-03-25T01:33:09.900Z,76.10
2019-03-25T01:35:38.232Z,76.70
2019-03-25T01:38:06.473Z,76.90
2019-03-25T01:40:34.694Z,76.60
2019-03-25T01:43:02.938Z,76.30
2019-03-25T01:45:31.182Z,76.40
2019-03-25T01:47:59.413Z,77.90
2019-03-25T01:50:27.641Z,77.30
2019-03-25T01:52:55.880Z,77.40
2019-03-25T01:55:24.101Z,77.90
2019-03-25T01:57:52.348Z,78.20
2019-03-25T02:00:20.636Z,77.80
2019-03-25T02:02:48.881Z,77.80
2019-03-25T02:05:17.109Z,77.70
2019-03-25T02:07:45.351Z,78.20
2019-03-25T02:10:13.589Z,77.90
2019-03-25T02:12:41.824Z,77.60
2019-03-25T02:15:10.045Z,77.30
2019-03-25T02:17:38.282Z,77.30
2019-03-25T02:20:06.784Z,77.10
2019-03-25T02:22:35.060Z,77.20
2019-03-25T02:25:04.671Z,77.50
2019-03-25T02:27:32.890Z,78.80
2019-03-25T02:30:01.138Z,77.90
2019-03-25T02:32:29.350Z,78.20
2019-03-25T02:34:57.600Z,78.10
2019-03-25T02:37:25.819Z,78.20
2019-03-25T02:39:54.096Z,78.50
2019-03-25T02:42:22.329Z,78.20
2019-03-25T02:44:50.566Z,78.30
2019-03-25T02:47:18.794Z,78.70
2019-03-25T02:49:47.040Z,78.40
2019-03-25T02:52:15.289Z,78.30
2019-03-25T02:54:43.509Z,78.40
2019-03-25T02:57:11.787Z,78.50
2019-03-25T02:59:40.075Z,79.10
2019-03-25T03:02:08.330Z,79.40
2019-03-25T03:04:36.559Z,79.90
2019-03-25T03:07:04.799Z,80.40
2019-03-25T03:09:33.025Z,80.80
2019-03-25T03:12:01.259Z,80.60
2019-03-25T03:14:29.563Z,81.00
2019-03-25T03:16:57.814Z,81.50
2019-03-25T03:19:26.113Z,81.70
2019-03-25T03:21:54.373Z,82.60
2019-03-25T03:24:22.604Z,82.60
2019-03-25T03:26:50.868Z,83.30
2019-03-25T03:29:19.149Z,84.20
2019-03-25T03:31:47.396Z,83.30
2019-03-25T03:34:15.626Z,83.20
2019-03-25T03:36:43.863Z,83.40
2019-03-25T03:39:12.090Z,83.30
2019-03-25T03:41:40.331Z,83.30
2019-03-25T03:44:08.658Z,83.20
2019-03-25T03:46:36.996Z,83.50
2019-03-25T03:49:05.217Z,83.60
2019-03-25T03:51:33.453Z,83.20
2019-03-25T03:54:01.773Z,82.60
2019-03-25T03:56:30.054Z,82.80
2019-03-25T03:58:58.280Z,83.70
2019-03-25T04:01:26.520Z,84.00
2019-03-25T04:03:54.744Z,83.90
2019-03-25T04:06:22.986Z,83.90
2019-03-25T04:08:51.211Z,83.70
2019-03-25T04:11:19.445Z,85.40
2019-03-25T04:13:47.676Z,84.60
2019-03-25T04:16:15.918Z,84.50
2019-03-25T04:18:44.166Z,84.50
2019-03-25T04:21:12.413Z,83.50
2019-03-25T04:23:40.644Z,83.80
2019-03-25T04:26:08.885Z,83.60
2019-03-25T04:28:37.121Z,84.20
2019-03-25T04:31:05.373Z,84.80
2019-03-25T04:33:33.611Z,84.50
2019-03-25T04:36:01.846Z,84.10
2019-03-25T04:38:30.095Z,84.80
2019-03-25T04:40:58.331Z,84.50
2019-03-25T04:43:26.553Z,84.90
2019-03-25T04:45:54.804Z,84.60
2019-03-25T04:48:23.043Z,84.80
2019-03-25T04:50:51.288Z,85.10
2019-03-25T04:53:19.513Z,84.90
2019-03-25T04:55:47.734Z,84.60
2019-03-25T04:58:15.979Z,84.70
2019-03-25T05:00:44.211Z,85.00
2019-03-25T05:03:12.444Z,85.40
2019-03-25T05:05:40.679Z,85.50
2019-03-25T05:08:08.956Z,85.60
2019-03-25T05:10:37.189Z,86.00
2019-03-25T05:13:05.492Z,86.70
2019-03-25T05:15:33.721Z,86.10
2019-03-25T05:18:01.969Z,86.00
2019-03-25T05:20:30.361Z,86.20
2019-03-25T05:22:58.584Z,86.20
2019-03-25T05:25:26.862Z,86.10
2019-03-25T05:27:55.140Z,86.30
2019-03-25T05:30:23.395Z,86.00
2019-03-25T05:32:51.616Z,85.30
2019-03-25T05:35:19.857Z,84.90
2019-03-25T05:37:48.096Z,85.30
2019-03-25T05:40:16.322Z,85.20
2019-03-25T05:42:44.546Z,85.40
2019-03-25T05:45:12.831Z,84.60
2019-03-25T05:47:41.066Z,84.20
2019-03-25T05:50:09.398Z,84.10
2019-03-25T05:52:37.808Z,83.80
2019-03-25T05:55:06.874Z,83.40
2019-03-25T05:57:35.171Z,83.30
2019-03-25T06:00:03.500Z,82.20
2019-03-25T06:02:31.719Z,81.70
2019-03-25T06:04:59.974Z,80.50
2019-03-25T06:07:28.201Z,80.20
2019-03-25T06:09:56.467Z,79.30
2019-03-25T06:12:24.737Z,77.70
2019-03-25T06:14:53.024Z,76.10
2019-03-25T06:17:21.317Z,75.60
2019-03-25T06:19:49.563Z,74.30
2019-03-25T06:22:17.812Z,73.20
2019-03-25T06:24:46.060Z,73.00
2019-03-25T06:27:14.738Z,72.90
2019-03-25T06:29:43.008Z,72.00
2019-03-25T06:32:11.235Z,71.60
2019-03-25T06:34:39.467Z,71.40
2019-03-25T06:37:07.712Z,71.00
2019-03-25T06:39:40.196Z,71.00
2019-03-25T06:42:08.511Z,69.40
2019-03-25T06:44:36.745Z,68.60
2019-03-25T06:47:04.981Z,68.50
2019-03-25T06:49:33.225Z,68.70
2019-03-25T06:52:01.448Z,69.00
2019-03-25T06:54:29.699Z,69.10
2019-03-25T06:56:57.940Z,68.20
2019-03-25T06:59:26.148Z,67.30
2019-03-25T07:01:54.397Z,66.50
2019-03-25T07:04:22.676Z,65.80
2019-03-25T07:06:50.967Z,65.50
2019-03-25T07:09:19.273Z,65.10
2019-03-25T07:11:47.505Z,64.20
2019-03-25T07:14:15.736Z,63.70
2019-03-25T07:16:44.036Z,63.60
2019-03-25T07:19:12.275Z,63.50
2019-03-25T07:21:40.515Z,62.50
2019-03-25T07:24:08.762Z,60.00
2019-03-25T07:26:37.017Z,59.90
2019-03-25T07:29:05.348Z,60.30
2019-03-25T07:31:33.572Z,59.90
2019-03-25T07:34:01.826Z,59.80
2019-03-25T07:36:30.057Z,59.80
2019-03-25T07:39:00.158Z,58.80
2019-03-25T07:41:28.246Z,58.70
2019-03-25T07:43:56.476Z,58.80
2019-03-25T07:46:24.708Z,58.00
2019-03-25T07:48:52.957Z,58.50
2019-03-25T07:51:21.196Z,58.30
2019-03-25T07:53:51.055Z,59.10
2019-03-25T07:56:19.448Z,59.00
2019-03-25T07:58:47.772Z,58.80
2019-03-25T08:01:16.062Z,59.10
2019-03-25T08:03:44.390Z,59.30
2019-03-25T08:06:12.749Z,59.60
2019-03-25T08:08:41.028Z,58.90
2019-03-25T08:11:09.269Z,59.00
2019-03-25T08:13:37.589Z,58.00
2019-03-25T08:16:05.845Z,57.60
2019-03-25T08:18:34.055Z,57.10
2019-03-25T08:21:02.305Z,57.10
2019-03-25T08:23:30.670Z,56.60
2019-03-25T08:25:58.944Z,55.80
2019-03-25T08:28:27.174Z,56.30
2019-03-25T08:30:55.425Z,56.60
2019-03-25T08:33:23.648Z,56.20
2019-03-25T08:35:51.889Z,56.40
2019-03-25T08:38:20.132Z,56.70
2019-03-25T08:40:48.372Z,56.50
2019-03-25T08:43:16.602Z,56.60
2019-03-25T08:45:44.823Z,56.60
2019-03-25T08:48:13.057Z,56.90
2019-03-25T08:50:41.288Z,57.00
2019-03-25T08:53:09.520Z,57.10
2019-03-25T08:55:37.755Z,55.90
2019-03-25T08:58:11.882Z,55.80
2019-03-25T09:00:35.944Z,55.90
2019-03-25T09:03:04.197Z,56.00
2019-03-25T09:05:32.424Z,55.70
2019-03-25T09:08:00.671Z,55.20
2019-03-25T09:10:28.961Z,55.40
2019-03-25T09:12:57.230Z,55.40
2019-03-25T09:15:25.555Z,54.70
2019-03-25T09:17:53.892Z,54.10
2019-03-25T09:20:22.124Z,54.50
2019-03-25T09:22:50.356Z,54.10
2019-03-25T09:25:18.586Z,54.70
2019-03-25T09:27:46.813Z,54.50
2019-03-25T09:30:18.333Z,54.50
2019-03-25T09:32:46.561Z,54.60
2019-03-25T09:35:14.880Z,54.10
2019-03-25T09:37:43.104Z,54.00
2019-03-25T09:40:12.276Z,52.90
2019-03-25T09:42:40.505Z,53.30
2019-03-25T09:45:08.748Z,53.50
2019-03-25T09:47:37.980Z,53.10
2019-03-25T09:50:07.244Z,52.70
2019-03-25T09:52:38.782Z,52.30
2019-03-25T09:55:08.384Z,51.90
2019-03-25T09:57:36.645Z,51.20
2019-03-25T10:00:11.129Z,50.10
2019-03-25T10:02:39.344Z,50.20
2019-03-25T10:05:07.662Z,49.30
2019-03-25T10:07:35.879Z,48.70
2019-03-25T10:10:06.649Z,47.20
2019-03-25T10:12:34.904Z,47.20
2019-03-25T10:15:03.130Z,47.00
2019-03-25T10:17:31.368Z,47.20
2019-03-25T10:19:59.735Z,46.20
2019-03-25T10:22:27.971Z,47.00
2019-03-25T10:24:56.197Z,46.60
2019-03-25T10:27:24.433Z,46.90
2019-03-25T10:29:52.653Z,45.90
2019-03-25T10:32:20.887Z,44.90
2019-03-25T10:34:49.113Z,44.80
2019-03-25T10:37:17.363Z,45.00
2019-03-25T10:39:45.588Z,45.80
2019-03-25T10:42:13.825Z,44.70
2019-03-25T10:44:42.059Z,44.30
2019-03-25T10:47:10.297Z,43.10
2019-03-25T10:49:38.516Z,43.00
2019-03-25T10:52:06.754Z,42.70
2019-03-25T10:54:35.044Z,42.70
2019-03-25T10:57:03.386Z,42.70
2019-03-25T10:59:31.621Z,43.40
2019-03-25T11:01:59.853Z,43.50
2019-03-25T11:04:28.077Z,43.60
2019-03-25T11:06:56.322Z,43.80
2019-03-25T11:09:24.565Z,43.60
2019-03-25T11:11:52.853Z,43.50
2019-03-25T11:14:21.094Z,42.60
2019-03-25T11:16:49.325Z,42.50
2019-03-25T11:19:17.562Z,42.70
2019-03-25T11:21:45.818Z,42.10
2019-03-25T11:24:15.217Z,40.40
2019-03-25T11:26:43.553Z,40.10
2019-03-25T11:29:11.813Z,39.20
2019-03-25T11:31:40.037Z,39.40
2019-03-25T11:34:08.276Z,40.30
2019-03-25T11:36:36.524Z,39.00
2019-03-25T11:39:07.257Z,37.70
2019-03-25T11:41:35.481Z,37.00
2019-03-25T11:44:03.901Z,37.20
2019-03-25T11:46:32.112Z,37.40
2019-03-25T11:49:00.357Z,39.20
2019-03-25T11:51:28.568Z,39.10
2019-03-25T11:53:58.651Z,40.00
2019-03-25T11:56:26.762Z,40.60
2019-03-25T11:58:54.997Z,40.80
2019-03-25T12:01:23.232Z,41.60
2019-03-25T12:03:51.461Z,43.20
2019-03-25T12:06:19.693Z,42.80
2019-03-25T12:08:47.946Z,43.20
2019-03-25T12:11:16.199Z,44.00
2019-03-25T12:13:44.420Z,44.70
2019-03-25T12:16:12.661Z,44.80
2019-03-25T12:18:40.937Z,45.20
2019-03-25T12:21:09.236Z,44.80
2019-03-25T12:23:37.474Z,44.90
2019-03-25T12:26:05.692Z,44.30
2019-03-25T12:28:33.944Z,43.90
2019-03-25T12:31:03.039Z,43.30
2019-03-25T12:33:31.261Z,41.80
2019-03-25T12:35:59.510Z,41.10
2019-03-25T12:38:27.731Z,41.70
2019-03-25T12:40:55.960Z,42.50
2019-03-25T12:43:24.214Z,43.90
2019-03-25T12:45:52.432Z,44.10
2019-03-25T12:48:20.686Z,44.60
2019-03-25T12:50:48.897Z,44.60
2019-03-25T12:53:17.129Z,45.20
2019-03-25T12:55:45.348Z,46.30
2019-03-25T12:58:13.584Z,45.70
2019-03-25T13:00:42.855Z,45.60
2019-03-25T13:03:11.085Z,46.60
2019-03-25T13:05:39.318Z,46.90
2019-03-25T13:08:08.029Z,46.70
2019-03-25T13:10:36.355Z,48.40
2019-03-25T13:13:04.578Z,54.30
2019-03-25T13:15:32.885Z,58.00
2019-03-25T13:18:01.107Z,60.60
2019-03-25T13:20:29.341Z,62.20
2019-03-25T13:22:57.563Z,61.20
2019-03-25T13:25:25.800Z,61.20
2019-03-25T13:27:54.032Z,60.60
2019-03-25T13:30:22.287Z,59.00
2019-03-25T13:32:50.533Z,58.30
2019-03-25T13:35:18.778Z,57.90
2019-03-25T13:37:47.069Z,55.20
2019-03-25T13:40:15.757Z,53.90
2019-03-25T13:42:44.001Z,55.60
2019-03-25T13:45:12.235Z,55.90
2019-03-25T13:47:40.481Z,56.50
2019-03-25T13:50:10.480Z,57.00
2019-03-25T13:52:38.720Z,56.40
2019-03-25T13:55:06.940Z,55.80
2019-03-25T13:57:35.167Z,56.80
2019-03-25T14:00:05.408Z,56.80
2019-03-25T14:02:33.624Z,55.80
2019-03-25T14:05:01.873Z,53.20
2019-03-25T14:07:30.184Z,48.40
2019-03-25T14:09:58.453Z,48.30
2019-03-25T14:12:26.697Z,50.60
2019-03-25T14:14:54.909Z,51.00
2019-03-25T14:17:23.331Z,49.20
2019-03-25T14:19:51.573Z,49.70
2019-03-25T14:22:19.793Z,52.40
2019-03-25T14:24:48.046Z,52.10
2019-03-25T14:27:16.275Z,51.00
2019-03-25T14:29:44.509Z,53.40
2019-03-25T14:32:12.741Z,58.50
2019-03-25T14:34:44.997Z,64.30
2019-03-25T14:37:10.924Z,71.40
2019-03-25T14:39:39.161Z,71.40
2019-03-25T14:42:07.385Z,72.20
2019-03-25T14:44:35.626Z,72.40
2019-03-25T14:47:03.849Z,75.70
2019-03-25T14:49:32.091Z,77.30
2019-03-25T14:52:00.394Z,76.40
2019-03-25T14:54:28.626Z,75.90
2019-03-25T14:56:56.848Z,78.40
2019-03-25T14:59:25.070Z,77.30
2019-03-25T15:01:53.322Z,79.00
2019-03-25T15:04:21.538Z,80.20
2019-03-25T15:06:49.841Z,79.60
2019-03-25T15:09:18.065Z,79.90
2019-03-25T15:11:46.306Z,77.70
2019-03-25T15:14:14.524Z,77.30
2019-03-25T15:16:42.752Z,76.00
2019-03-25T15:19:10.996Z,71.90
2019-03-25T15:21:39.221Z,72.80
2019-03-25T15:24:07.448Z,66.50
2019-03-25T15:26:35.672Z,62.00
2019-03-25T15:29:03.899Z,60.60
2019-03-25T15:31:32.132Z,58.70
2019-03-25T15:34:00.350Z,58.60
2019-03-25T15:36:28.592Z,55.90
2019-03-25T15:38:56.837Z,52.00
2019-03-25T15:41:25.103Z,54.80
2019-03-25T15:43:53.324Z,55.00
2019-03-25T15:46:21.554Z,52.80
2019-03-25T15:48:49.792Z,54.10
2019-03-25T15:51:18.015Z,53.90
2019-03-25T15:53:46.240Z,54.30
2019-03-25T15:56:14.483Z,54.50
2019-03-25T15:58:42.787Z,57.00
2019-03-25T16:01:11.059Z,60.60
2019-03-25T16:03:39.297Z,64.20
2019-03-25T16:06:07.528Z,66.20
2019-03-25T16:08:35.761Z,67.90
2019-03-25T16:11:04.004Z,67.80
2019-03-25T16:13:32.233Z,67.40
2019-03-25T16:16:00.530Z,68.70
2019-03-25T16:18:33.735Z,69.40
2019-03-25T16:21:02.005Z,68.70
2019-03-25T16:23:30.249Z,69.40
2019-03-25T16:25:58.496Z,70.20
2019-03-25T16:28:26.715Z,71.40
2019-03-25T16:30:59.103Z,75.70
2019-03-25T16:33:24.902Z,82.20
2019-03-25T16:35:53.129Z,85.50
2019-03-25T16:38:21.366Z,87.50
2019-03-25T16:40:49.585Z,87.80
2019-03-25T16:43:17.960Z,86.90
2019-03-25T16:45:46.193Z,84.00
2019-03-25T16:48:14.405Z,84.00
2019-03-25T16:50:42.641Z,82.80
2019-03-25T16:53:10.879Z,83.00
2019-03-25T16:55:39.101Z,80.60
2019-03-25T16:58:07.330Z,79.50
2019-03-25T17:00:35.566Z,80.00
2019-03-25T17:03:03.785Z,78.20
2019-03-25T17:05:32.011Z,76.60
2019-03-25T17:08:00.282Z,77.80
2019-03-25T17:10:28.500Z,77.60
2019-03-25T17:12:56.840Z,75.40
2019-03-25T17:15:25.060Z,75.40
2019-03-25T17:17:53.276Z,75.40
2019-03-25T17:20:21.518Z,74.70
2019-03-25T17:22:49.745Z,74.20
2019-03-25T17:25:17.971Z,74.80
2019-03-25T17:27:46.213Z,75.20
2019-03-25T17:30:15.265Z,75.40
2019-03-25T17:32:43.566Z,74.70
2019-03-25T17:35:12.185Z,74.80
2019-03-25T17:37:40.408Z,75.40
2019-03-25T17:40:08.763Z,75.60
2019-03-25T17:42:37.035Z,75.10
2019-03-25T17:45:08.366Z,75.00
2019-03-25T17:47:36.618Z,75.50
2019-03-25T17:50:07.693Z,75.60
2019-03-25T17:52:35.917Z,76.00
2019-03-25T17:55:06.850Z,76.50
2019-03-25T17:57:35.087Z,76.60
2019-03-25T18:00:08.432Z,76.20
2019-03-25T18:02:36.664Z,77.10
2019-03-25T18:05:07.393Z,76.50
2019-03-25T18:07:35.714Z,77.20
2019-03-25T18:10:06.645Z,76.90
2019-03-25T18:12:39.069Z,76.30
2019-03-25T18:15:08.097Z,76.30
2019-03-25T18:17:36.322Z,76.80
2019-03-25T18:20:17.777Z,76.70
2019-03-25T18:22:39.916Z,77.10
2019-03-25T18:25:07.059Z,76.60
2019-03-25T18:27:35.294Z,76.20
2019-03-25T18:30:04.907Z,77.10
2019-03-25T18:32:33.181Z,80.20
2019-03-25T18:35:01.601Z,85.10
2019-03-25T18:37:29.837Z,88.00
2019-03-25T18:39:58.156Z,89.30
2019-03-25T18:42:26.385Z,90.40
2019-03-25T18:44:54.661Z,91.10
2019-03-25T18:47:22.885Z,91.30
2019-03-25T18:49:51.261Z,91.70
2019-03-25T18:52:19.560Z,91.80
2019-03-25T18:54:47.812Z,91.60
2019-03-25T18:57:16.027Z,91.60
2019-03-25T18:59:44.266Z,91.60
2019-03-25T19:02:12.549Z,91.30
2019-03-25T19:04:40.801Z,91.30
2019-03-25T19:07:09.533Z,91.50
2019-03-25T19:09:38.172Z,91.30
2019-03-25T19:12:06.462Z,91.50
2019-03-25T19:14:35.507Z,91.80
2019-03-25T19:17:05.350Z,91.50
2019-03-25T19:19:34.169Z,91.70
2019-03-25T19:22:26.747Z,91.40
2019-03-25T19:24:56.754Z,91.10
2019-03-25T19:27:26.415Z,90.80
2019-03-25T19:29:56.213Z,90.60
2019-03-25T19:32:25.716Z,90.80
2019-03-25T19:34:55.835Z,91.20
2019-03-25T19:37:25.476Z,90.80
2019-03-25T19:39:55.358Z,90.10
2019-03-25T19:42:25.036Z,90.30
2019-03-25T19:44:54.782Z,90.30
2019-03-25T19:47:24.330Z,89.50
2019-03-25T19:49:54.428Z,90.00
2019-03-25T19:52:24.175Z,89.10
2019-03-25T19:54:54.216Z,89.30
2019-03-25T19:57:23.919Z,89.30
2019-03-25T19:59:53.622Z,88.20
2019-03-25T20:02:23.429Z,88.10
2019-03-25T20:04:53.225Z,88.00
2019-03-25T20:07:26.972Z,88.20
2019-03-25T20:09:56.757Z,86.80
2019-03-25T20:12:26.517Z,88.70
2019-03-25T20:14:57.614Z,88.00
2019-03-25T20:17:27.526Z,87.70
2019-03-25T20:19:57.337Z,88.50
2019-03-25T20:22:26.968Z,88.30
2019-03-25T20:24:57.172Z,88.70
2019-03-25T20:27:26.928Z,89.30
2019-03-25T20:29:56.813Z,89.30
2019-03-25T20:32:32.046Z,88.30
2019-03-25T20:35:00.753Z,88.50
2019-03-25T20:37:31.267Z,89.40
2019-03-25T20:40:01.284Z,89.00
2019-03-25T20:42:30.885Z,89.80
2019-03-25T20:45:00.956Z,89.70
2019-03-25T20:47:30.910Z,90.10
2019-03-25T20:50:00.959Z,90.00
2019-03-25T20:52:30.602Z,90.00
2019-03-25T20:55:00.727Z,90.30
2019-03-25T20:57:30.540Z,90.30
2019-03-25T21:00:00.468Z,90.60
2019-03-25T21:02:30.595Z,90.40
2019-03-25T21:05:00.427Z,90.30
2019-03-25T21:07:30.867Z,90.20
2019-03-25T21:10:00.838Z,90.10
2019-03-25T21:12:31.136Z,90.10
2019-03-25T21:15:01.415Z,90.20
2019-03-25T21:17:31.329Z,90.40
2019-03-25T21:20:01.080Z,90.30
2019-03-25T21:22:30.964Z,90.20
2019-03-25T21:25:00.028Z,90.40
2019-03-25T21:27:28.786Z,90.30
2019-03-25T21:29:57.159Z,90.30
2019-03-25T21:32:25.461Z,90.10
2019-03-25T21:34:53.750Z,90.10
2019-03-25T21:37:21.988Z,90.10
2019-03-25T21:39:50.251Z,89.40
2019-03-25T21:42:18.531Z,89.40
2019-03-25T21:44:46.995Z,89.90
2019-03-25T21:47:15.282Z,90.30
2019-03-25T21:49:43.577Z,90.10
2019-03-25T21:52:11.971Z,89.10
2019-03-25T21:54:40.242Z,90.10
2019-03-25T21:57:08.517Z,88.70
2019-03-25T21:59:36.753Z,88.10
2019-03-25T22:02:04.982Z,88.00
2019-03-25T22:04:33.208Z,87.20
2019-03-25T22:07:01.479Z,87.60
2019-03-25T22:09:29.772Z,87.60
2019-03-25T22:11:58.008Z,86.90
2019-03-25T22:14:26.265Z,87.30
2019-03-25T22:16:54.543Z,86.60
2019-03-25T22:19:22.775Z,86.50
2019-03-25T22:21:51.014Z,86.30
2019-03-25T22:24:19.246Z,86.40
2019-03-25T22:26:47.481Z,86.60
2019-03-25T22:29:15.696Z,86.50
2019-03-25T22:31:43.928Z,86.20
2019-03-25T22:34:12.230Z,86.70
2019-03-25T22:36:40.540Z,85.90
2019-03-25T22:39:08.777Z,86.00
2019-03-25T22:41:37.008Z,86.40
2019-03-25T22:44:05.234Z,86.30
2019-03-25T22:46:33.461Z,86.20
2019-03-25T22:49:01.688Z,86.40
2019-03-25T22:51:29.926Z,86.60
2019-03-25T22:53:58.163Z,85.90
2019-03-25T22:56:26.380Z,86.30
2019-03-25T22:58:54.703Z,86.30
2019-03-25T23:01:23.021Z,86.60
2019-03-25T23:03:51.238Z,86.70
2019-03-25T23:06:19.480Z,86.80
2019-03-25T23:08:47.697Z,86.60
2019-03-25T23:11:15.940Z,87.20
2019-03-25T23:13:44.162Z,87.80
2019-03-25T23:16:12.384Z,88.30
2019-03-25T23:18:40.630Z,88.10
2019-03-25T23:21:08.905Z,87.50
2019-03-25T23:23:37.124Z,87.70
2019-03-25T23:26:05.428Z,87.70
2019-03-25T23:28:33.644Z,87.20
2019-03-25T23:31:01.878Z,87.40
2019-03-25T23:33:30.137Z,87.50
2019-03-25T23:35:58.364Z,88.00
2019-03-25T23:38:26.598Z,87.60
2019-03-25T23:40:54.829Z,87.70
2019-03-25T23:43:23.053Z,87.50
2019-03-25T23:45:51.281Z,87.70
2019-03-25T23:48:19.517Z,87.70
2019-03-25T23:50:47.749Z,87.20
2019-03-25T23:53:15.990Z,87.20
2019-03-25T23:55:44.218Z,87.80
2019-03-25T23:58:12.437Z,88.10
